Time;durP1;ratioP1;P1;durP2;ratioP2;P2;SDS_P1;SDS_P2;PMS_P1;PMS_P2;Temp;Humidity;BMP_temperature;BMP_pressure;BME280_temperature;BME280_humidity;BME280_pressure;Samples;Min_cycle;Max_cycle;Signal;HPM_P1;HPM_P2
2023/12/03 00:02:42;;;;;;;;;;;;;;;;;;6277219;28;19913;-89
2023/12/03 00:05:43;;;;;;;;;;;;;;;;;;6282160;28;19916;-92
2023/12/03 00:08:43;;;;;;;;;;;;;;;;;;6267375;28;20394;-90
2023/12/03 00:11:43;;;;;;;;;;;;;;;;;;6307544;28;19924;-90
2023/12/03 00:14:43;;;;;;;;;;;;;;;;;;6265851;28;20651;-89
2023/12/03 00:17:43;;;;;;;;;;;;;;;;;;6290866;28;19959;-90
2023/12/03 00:20:43;;;;;;;;;;;;;;;;;;6273843;28;19916;-90
2023/12/03 00:23:43;;;;;;;;;;;;;;;;;;6276402;28;19912;-89
2023/12/03 00:26:44;;;;;;;;;;;;;;;;;;6282456;28;19919;-90
2023/12/03 00:29:44;;;;;;;;;;;;;;;;;;6275152;28;19913;-90
2023/12/03 00:32:44;;;;;;;;;;;;;;;;;;6279675;28;19917;-89
2023/12/03 00:35:44;;;;;;;;;;;;;;;;;;6285794;28;19923;-90
2023/12/03 00:38:44;;;;;;;;;;;;;;;;;;6270669;28;20130;-89
2023/12/03 00:41:44;;;;;;;;;;;;;;;;;;6284721;28;19920;-89
2023/12/03 00:44:44;;;;;;;;;;;;;;;;;;6283565;28;19965;-89
2023/12/03 00:47:45;;;;;;;;;;;;;;;;;;6283473;28;19919;-89
2023/12/03 00:50:45;;;;;;;;;;;;;;;;;;6281597;28;19917;-89
2023/12/03 00:53:45;;;;;;;;;;;;;;;;;;6259414;28;19947;-89
2023/12/03 00:56:45;;;;;;;;;;;;;;;;;;6263137;28;19924;-89
2023/12/03 00:59:45;;;;;;;;;;;;;;;;;;6272118;28;19943;-88
2023/12/03 01:02:45;;;;;;;;;;;;;;;;;;6273303;28;19923;-89
2023/12/03 01:05:45;;;;;;;;;;;;;;;;;;6293067;28;19981;-89
2023/12/03 01:08:46;;;;;;;;;;;;;;;;;;6301807;28;19990;-89
2023/12/03 01:11:46;;;;;;;;;;;;;;;;;;6273991;28;19912;-89
2023/12/03 01:14:46;;;;;;;;;;;;;;;;;;6282527;28;19985;-89
2023/12/03 01:17:47;;;;;;;;;;;;;;;;;;6267637;28;19917;-89
2023/12/03 01:20:47;;;;;;;;;;;;;;;;;;6280674;28;20033;-88
2023/12/03 01:23:47;;;;;;;;;;;;;;;;;;6274626;28;19916;-88
2023/12/03 01:26:47;;;;;;;;;;;;;;;;;;6273825;28;19913;-88
2023/12/03 01:29:47;;;;;;;;;;;;;;;;;;6283105;28;19921;-89
2023/12/03 01:32:47;;;;;;;;;;;;;;;;;;6272337;28;19913;-89
2023/12/03 01:35:48;;;;;;;;;;;;;;;;;;6275934;28;19916;-89
2023/12/03 01:38:48;;;;;;;;;;;;;;;;;;6275114;28;19948;-89
2023/12/03 01:41:48;;;;;;;;;;;;;;;;;;6274883;28;20289;-89
2023/12/03 01:44:48;;;;;;;;;;;;;;;;;;6273416;28;19920;-88
2023/12/03 01:47:48;;;;;;;;;;;;;;;;;;6292665;28;19927;-89
2023/12/03 01:50:49;;;;;;;;;;;;;;;;;;6279167;28;19913;-89
2023/12/03 01:53:49;;;;;;;;;;;;;;;;;;6275934;28;19967;-89
2023/12/03 01:56:49;;;;;;;;;;;;;;;;;;6265496;28;20012;-89
2023/12/03 01:59:49;;;;;;;;;;;;;;;;;;6280935;28;20259;-89
2023/12/03 02:02:50;;;;;;;;;;;;;;;;;;6267147;28;19920;-88
2023/12/03 02:05:50;;;;;;;;;;;;;;;;;;6280808;28;19936;-89
2023/12/03 02:08:50;;;;;;;;;;;;;;;;;;6289922;28;20282;-89
2023/12/03 02:11:50;;;;;;;;;;;;;;;;;;6277789;28;19965;-89
2023/12/03 02:14:50;;;;;;;;;;;;;;;;;;6275341;28;19921;-88
2023/12/03 02:17:51;;;;;;;;;;;;;;;;;;6271403;28;19920;-89
2023/12/03 02:20:51;;;;;;;;;;;;;;;;;;6272878;28;19920;-89
2023/12/03 02:23:52;;;;;;;;;;;;;;;;;;6281866;28;20007;-88
2023/12/03 02:26:52;;;;;;;;;;;;;;;;;;6272663;28;19913;-89
2023/12/03 02:29:52;;;;;;;;;;;;;;;;;;6258488;28;19951;-87
2023/12/03 02:32:52;;;;;;;;;;;;;;;;;;6275497;28;19924;-88
2023/12/03 02:35:52;;;;;;;;;;;;;;;;;;6258681;28;19916;-88
2023/12/03 02:38:54;;;;;;;;;;;;;;;;;;6260104;28;19924;-88
2023/12/03 02:41:54;;;;;;;;;;;;;;;;;;6287894;28;19913;-89
2023/12/03 02:44:54;;;;;;;;;;;;;;;;;;6282332;28;20368;-88
2023/12/03 02:47:54;;;;;;;;;;;;;;;;;;6270966;28;20362;-88
2023/12/03 02:50:54;;;;;;;;;;;;;;;;;;6288419;28;20381;-89
2023/12/03 02:53:55;;;;;;;;;;;;;;;;;;6278461;28;19917;-91
2023/12/03 02:56:55;;;;;;;;;;;;;;;;;;6267090;28;19921;-88
2023/12/03 02:59:55;;;;;;;;;;;;;;;;;;6282744;28;20023;-88
2023/12/03 03:02:55;;;;;;;;;;;;;;;;;;6276730;28;20016;-88
2023/12/03 03:05:55;;;;;;;;;;;;;;;;;;6279533;28;20011;-89
2023/12/03 03:08:56;;;;;;;;;;;;;;;;;;6273094;28;19913;-88
2023/12/03 03:11:57;;;;;;;;;;;;;;;;;;6272429;28;20357;-88
2023/12/03 03:14:57;;;;;;;;;;;;;;;;;;6284311;28;19960;-88
2023/12/03 03:17:57;;;;;;;;;;;;;;;;;;6277107;28;20496;-88
2023/12/03 03:20:57;;;;;;;;;;;;;;;;;;6272503;28;20024;-89
2023/12/03 03:23:57;;;;;;;;;;;;;;;;;;6287312;28;20003;-88
2023/12/03 03:26:58;;;;;;;;;;;;;;;;;;6264248;28;20413;-88
2023/12/03 03:29:58;;;;;;;;;;;;;;;;;;6282098;28;19928;-88
2023/12/03 03:32:58;;;;;;;;;;;;;;;;;;6280919;28;19913;-88
2023/12/03 03:35:58;;;;;;;;;;;;;;;;;;6261643;28;19968;-88
2023/12/03 03:38:58;;;;;;;;;;;;;;;;;;6253394;28;19917;-89
2023/12/03 03:41:58;;;;;;;;;;;;;;;;;;6285107;28;19921;-89
2023/12/03 03:44:58;;;;;;;;;;;;;;;;;;6276267;28;19912;-89
2023/12/03 03:47:59;;;;;;;;;;;;;;;;;;6275005;28;19912;-89
2023/12/03 03:50:59;;;;;;;;;;;;;;;;;;6294018;28;19978;-88
2023/12/03 03:53:59;;;;;;;;;;;;;;;;;;6261008;28;19920;-89
2023/12/03 03:56:59;;;;;;;;;;;;;;;;;;6283889;28;19925;-89
2023/12/03 03:59:59;;;;;;;;;;;;;;;;;;6276594;28;19916;-88
2023/12/03 04:02:59;;;;;;;;;;;;;;;;;;6261968;28;19940;-89
2023/12/03 04:05:59;;;;;;;;;;;;;;;;;;6274453;28;19990;-89
2023/12/03 04:09:00;;;;;;;;;;;;;;;;;;6266684;28;20014;-89
2023/12/03 04:12:00;;;;;;;;;;;;;;;;;;6261155;28;19923;-89
2023/12/03 04:15:00;;;;;;;;;;;;;;;;;;6292525;28;19920;-88
2023/12/03 04:18:00;;;;;;;;;;;;;;;;;;6275309;28;19913;-88
2023/12/03 04:21:00;;;;;;;;;;;;;;;;;;6295023;28;19909;-88
2023/12/03 04:24:00;;;;;;;;;;;;;;;;;;6275488;28;20392;-89
2023/12/03 04:27:00;;;;;;;;;;;;;;;;;;6258742;28;19920;-89
2023/12/03 04:30:01;;;;;;;;;;;;;;;;;;6272868;28;20007;-88
2023/12/03 04:33:01;;;;;;;;;;;;;;;;;;6277582;28;20014;-88
2023/12/03 04:36:02;;;;;;;;;;;;;;;;;;6268603;28;20050;-89
2023/12/03 04:39:04;;;;;;;;;;;;;;;;;;6265177;28;19917;-90
2023/12/03 04:42:04;;;;;;;;;;;;;;;;;;6297759;28;20377;-88
2023/12/03 04:45:04;;;;;;;;;;;;;;;;;;6281896;28;19913;-90
2023/12/03 04:48:05;;;;;;;;;;;;;;;;;;6278210;28;19917;-89
2023/12/03 04:51:05;;;;;;;;;;;;;;;;;;6275109;28;19916;-89
2023/12/03 04:54:05;;;;;;;;;;;;;;;;;;6303695;28;19965;-90
2023/12/03 04:57:05;;;;;;;;;;;;;;;;;;6292061;28;19916;-89
2023/12/03 05:00:07;;;;;;;;;;;;;;;;;;6290656;28;19920;-89
2023/12/03 05:03:07;;;;;;;;;;;;;;;;;;6273145;28;20380;-89
2023/12/03 05:06:07;;;;;;;;;;;;;;;;;;6258120;28;19913;-89
2023/12/03 05:09:09;;;;;;;;;;;;;;;;;;6288086;28;19960;-89
2023/12/03 05:12:09;;;;;;;;;;;;;;;;;;6266315;28;19928;-89
2023/12/03 05:15:09;;;;;;;;;;;;;;;;;;6272837;28;19917;-90
2023/12/03 05:18:09;;;;;;;;;;;;;;;;;;6273496;28;19917;-89
2023/12/03 05:21:09;;;;;;;;;;;;;;;;;;6271978;28;19966;-89
2023/12/03 05:24:10;;;;;;;;;;;;;;;;;;6276581;28;19920;-89
2023/12/03 05:27:10;;;;;;;;;;;;;;;;;;6272931;28;19913;-89
2023/12/03 05:30:10;;;;;;;;;;;;;;;;;;6292807;28;19927;-90
2023/12/03 05:33:10;;;;;;;;;;;;;;;;;;6274960;28;19913;-89
2023/12/03 05:36:10;;;;;;;;;;;;;;;;;;6270908;28;19917;-89
2023/12/03 05:39:10;;;;;;;;;;;;;;;;;;6274125;28;19917;-89
2023/12/03 05:42:11;;;;;;;;;;;;;;;;;;6279556;28;19966;-89
2023/12/03 05:45:11;;;;;;;;;;;;;;;;;;6281061;28;19912;-90
2023/12/03 05:48:12;;;;;;;;;;;;;;;;;;6276872;28;19920;-89
2023/12/03 05:51:12;;;;;;;;;;;;;;;;;;6279575;28;19913;-90
2023/12/03 05:54:12;;;;;;;;;;;;;;;;;;6279445;28;19912;-89
2023/12/03 05:57:12;;;;;;;;;;;;;;;;;;6280835;28;19917;-89
2023/12/03 06:00:12;;;;;;;;;;;;;;;;;;6297501;28;19917;-89
2023/12/03 06:03:12;;;;;;;;;;;;;;;;;;6280932;28;19934;-89
2023/12/03 06:06:13;;;;;;;;;;;;;;;;;;6261132;28;19955;-90
2023/12/03 06:09:13;;;;;;;;;;;;;;;;;;6278527;28;19912;-91
2023/12/03 06:12:13;;;;;;;;;;;;;;;;;;6280113;28;19939;-91
2023/12/03 06:15:13;;;;;;;;;;;;;;;;;;6326483;28;19920;-91
2023/12/03 06:18:13;;;;;;;;;;;;;;;;;;6322276;28;19908;-91
2023/12/03 06:21:13;;;;;;;;;;;;;;;;;;6301147;28;20000;-91
2023/12/03 06:24:13;;;;;;;;;;;;;;;;;;6301466;28;19947;-94
2023/12/03 06:27:13;;;;;;;;;;;;;;;;;;6300974;28;19916;-94
2023/12/03 06:30:14;;;;;;;;;;;;;;;;;;6293823;28;19920;-94
2023/12/03 06:33:15;;;;;;;;;;;;;;;;;;6280424;28;19916;-94
2023/12/03 06:36:15;;;;;;;;;;;;;;;;;;6300732;28;19935;-94
2023/12/03 06:39:17;;;;;;;;;;;;;;;;;;6296947;28;20226;-94
2023/12/03 06:42:17;;;;;;;;;;;;;;;;;;6302526;28;20273;-94
2023/12/03 06:45:17;;;;;;;;;;;;;;;;;;6269335;28;19913;-92
2023/12/03 06:48:17;;;;;;;;;;;;;;;;;;6294173;28;19912;-96
2023/12/03 06:51:18;;;;;;;;;;;;;;;;;;6284601;28;20007;-94
2023/12/03 06:54:18;;;;;;;;;;;;;;;;;;6282836;28;20277;-95
2023/12/03 06:57:18;;;;;;;;;;;;;;;;;;6289170;28;19917;-96
2023/12/03 07:00:18;;;;;;;;;;;;;;;;;;6295721;28;19992;-95
2023/12/03 07:03:18;;;;;;;;;;;;;;;;;;6262388;28;19913;-90
2023/12/03 07:06:19;;;;;;;;;;;;;;;;;;6281483;28;19923;-95
2023/12/03 07:09:19;;;;;;;;;;;;;;;;;;6290929;28;19948;-96
2023/12/03 07:12:19;;;;;;;;;;;;;;;;;;6278174;28;19913;-92
2023/12/03 07:15:19;;;;;;;;;;;;;;;;;;6278483;28;19916;-87
2023/12/03 07:18:19;;;;;;;;;;;;;;;;;;6272690;28;20308;-89
2023/12/03 07:21:19;;;;;;;;;;;;;;;;;;6268934;28;19913;-91
2023/12/03 07:24:20;;;;;;;;;;;;;;;;;;6278785;28;19913;-90
2023/12/03 07:27:20;;;;;;;;;;;;;;;;;;6274743;28;19998;-93
2023/12/03 07:30:20;;;;;;;;;;;;;;;;;;6280664;28;19974;-91
2023/12/03 07:33:20;;;;;;;;;;;;;;;;;;6276415;28;20041;-88
2023/12/03 07:36:21;;;;;;;;;;;;;;;;;;6265221;28;20361;-92
2023/12/03 07:39:23;;;;;;;;;;;;;;;;;;6279734;28;19924;-93
2023/12/03 07:42:24;;;;;;;;;;;;;;;;;;6275595;28;20389;-87
2023/12/03 07:45:24;;;;;;;;;;;;;;;;;;6276686;28;19912;-86
2023/12/03 07:48:24;;;;;;;;;;;;;;;;;;6276113;28;19919;-85
2023/12/03 07:51:24;;;;;;;;;;;;;;;;;;6290683;28;19920;-87
2023/12/03 07:54:24;;;;;;;;;;;;;;;;;;6280634;28;19913;-85
2023/12/03 07:57:24;;;;;;;;;;;;;;;;;;6273538;28;19916;-86
2023/12/03 08:00:24;;;;;;;;;;;;;;;;;;6283746;28;20369;-87
2023/12/03 08:03:24;;;;;;;;;;;;;;;;;;6276643;28;20001;-87
2023/12/03 08:06:25;;;;;;;;;;;;;;;;;;6277228;28;19944;-86
2023/12/03 08:09:25;;;;;;;;;;;;;;;;;;6298890;28;19927;-86
2023/12/03 08:12:25;;;;;;;;;;;;;;;;;;6283903;28;20273;-88
2023/12/03 08:15:25;;;;;;;;;;;;;;;;;;6274178;28;20289;-87
2023/12/03 08:18:26;;;;;;;;;;;;;;;;;;6301657;28;19926;-90
2023/12/03 08:21:26;;;;;;;;;;;;;;;;;;6287196;28;19946;-90
2023/12/03 08:24:26;;;;;;;;;;;;;;;;;;6295371;28;19921;-89
2023/12/03 08:27:27;;;;;;;;;;;;;;;;;;6266404;28;19987;-89
2023/12/03 08:30:27;;;;;;;;;;;;;;;;;;6301411;28;19957;-90
2023/12/03 08:33:27;;;;;;;;;;;;;;;;;;6262060;28;19916;-90
2023/12/03 08:36:31;;;;;;;;;;;;;;;;;;6269710;28;19917;-90
2023/12/03 08:39:31;;;;;;;;;;;;;;;;;;6278871;28;20003;-89
2023/12/03 08:42:32;;;;;;;;;;;;;;;;;;6264364;28;19913;-93
2023/12/03 08:45:35;;;;;;;;;;;;;;;;;;6279465;28;19923;-90
2023/12/03 08:48:36;;;;;;;;;;;;;;;;;;6281216;28;19940;-92
2023/12/03 08:51:36;;;;;;;;;;;;;;;;;;6280183;28;20036;-93
2023/12/03 08:54:36;;;;;;;;;;;;;;;;;;6273425;28;19916;-86
2023/12/03 08:57:36;;;;;;;;;;;;;;;;;;6277007;28;20289;-90
2023/12/03 09:00:37;;;;;;;;;;;;;;;;;;6280198;28;19913;-85
2023/12/03 09:03:40;;;;;;;;;;;;;;;;;;6279661;28;19920;-86
2023/12/03 09:06:40;;;;;;;;;;;;;;;;;;6276275;28;19913;-87
2023/12/03 09:09:42;;;;;;;;;;;;;;;;;;6280827;28;19959;-87
2023/12/03 09:12:42;;;;;;;;;;;;;;;;;;6291275;28;19913;-85
2023/12/03 09:15:42;;;;;;;;;;;;;;;;;;6272848;28;20397;-85
2023/12/03 09:18:42;;;;;;;;;;;;;;;;;;6272335;28;19925;-86
2023/12/03 09:21:43;;;;;;;;;;;;;;;;;;6301497;28;19916;-84
2023/12/03 09:24:43;;;;;;;;;;;;;;;;;;6280949;28;20278;-85
2023/12/03 09:27:43;;;;;;;;;;;;;;;;;;6277519;28;20007;-86
2023/12/03 09:30:43;;;;;;;;;;;;;;;;;;6265330;28;19920;-86
2023/12/03 09:33:44;;;;;;;;;;;;;;;;;;6271432;28;19924;-86
2023/12/03 09:36:45;;;;;;;;;;;;;;;;;;6266942;28;19917;-85
2023/12/03 09:39:45;;;;;;;;;;;;;;;;;;6273335;28;20682;-85
2023/12/03 09:42:45;;;;;;;;;;;;;;;;;;6287082;28;19931;-84
2023/12/03 09:45:45;;;;;;;;;;;;;;;;;;6288915;28;19919;-84
2023/12/03 09:48:45;;;;;;;;;;;;;;;;;;6259030;28;19916;-83
2023/12/03 09:51:45;;;;;;;;;;;;;;;;;;6280008;28;20319;-84
2023/12/03 09:54:46;;;;;;;;;;;;;;;;;;6271032;28;19925;-84
2023/12/03 09:57:47;;;;;;;;;;;;;;;;;;6285030;28;20026;-84
2023/12/03 10:00:47;;;;;;;;;;;;;;;;;;6276661;28;19921;-84
2023/12/03 10:03:49;;;;;;;;;;;;;;;;;;6275344;28;19924;-85
2023/12/03 10:06:49;;;;;;;;;;;;;;;;;;6279009;28;20389;-84
2023/12/03 10:09:49;;;;;;;;;;;;;;;;;;6279025;28;19917;-84
2023/12/03 10:12:50;;;;;;;;;;;;;;;;;;6278509;28;19913;-85
2023/12/03 10:15:50;;;;;;;;;;;;;;;;;;6276401;28;19923;-85
2023/12/03 10:18:51;;;;;;;;;;;;;;;;;;6273306;28;20310;-85
2023/12/03 10:21:51;;;;;;;;;;;;;;;;;;6278227;28;19912;-85
2023/12/03 10:24:51;;;;;;;;;;;;;;;;;;6265612;28;19913;-85
2023/12/03 10:27:51;;;;;;;;;;;;;;;;;;6275482;28;19917;-85
2023/12/03 10:30:51;;;;;;;;;;;;;;;;;;6274451;28;19921;-85
2023/12/03 10:33:51;;;;;;;;;;;;;;;;;;6283328;28;19916;-86
2023/12/03 10:36:52;;;;;;;;;;;;;;;;;;6271009;28;20127;-86
2023/12/03 10:39:52;;;;;;;;;;;;;;;;;;6279568;28;19920;-86
2023/12/03 10:42:52;;;;;;;;;;;;;;;;;;6278643;28;19909;-86
2023/12/03 10:45:53;;;;;;;;;;;;;;;;;;6268898;28;19920;-86
2023/12/03 10:48:53;;;;;;;;;;;;;;;;;;6275252;28;19909;-86
2023/12/03 10:51:53;;;;;;;;;;;;;;;;;;6285237;28;20273;-89
2023/12/03 10:54:53;;;;;;;;;;;;;;;;;;6270299;28;19923;-88
2023/12/03 10:57:53;;;;;;;;;;;;;;;;;;6280922;28;20329;-88
2023/12/03 11:00:55;;;;;;;;;;;;;;;;;;6282884;28;19916;-90
2023/12/03 11:03:59;;;;;;;;;;;;;;;;;;6267842;28;19913;-85
2023/12/03 11:06:59;;;;;;;;;;;;;;;;;;6259218;28;19913;-86
2023/12/03 11:09:59;;;;;;;;;;;;;;;;;;6274447;28;20304;-87
2023/12/03 11:13:00;;;;;;;;;;;;;;;;;;6274625;28;19917;-86
2023/12/03 11:16:00;;;;;;;;;;;;;;;;;;6278188;28;20039;-85
2023/12/03 11:19:00;;;;;;;;;;;;;;;;;;6270737;28;20012;-86
2023/12/03 11:22:00;;;;;;;;;;;;;;;;;;6280302;28;19916;-86
2023/12/03 11:25:00;;;;;;;;;;;;;;;;;;6273733;28;19913;-87
2023/12/03 11:28:01;;;;;;;;;;;;;;;;;;6276959;28;19967;-85
2023/12/03 11:31:01;;;;;;;;;;;;;;;;;;6296798;28;19920;-85
2023/12/03 11:34:05;;;;;;;;;;;;;;;;;;6277475;28;19928;-85
2023/12/03 11:37:07;;;;;;;;;;;;;;;;;;6270066;28;20350;-82
2023/12/03 11:40:12;;;;;;;;;;;;;;;;;;6283857;28;19929;-83
2023/12/03 11:43:12;;;;;;;;;;;;;;;;;;5925421;28;10000006;-83
2023/12/03 11:46:12;;;;;;;;;;;;;;;;;;6269178;28;19912;-82
2023/12/03 11:49:12;;;;;;;;;;;;;;;;;;5929980;28;9999583;-83
2023/12/03 11:52:12;;;;;;;;;;;;;;;;;;6276096;28;19913;-82
2023/12/03 11:55:13;;;;;;;;;;;;;;;;;;6271875;28;19924;-84
2023/12/03 11:58:13;;;;;;;;;;;;;;;;;;6275922;28;19924;-83
2023/12/03 12:01:14;;;;;;;;;;;;;;;;;;6262276;28;19919;-87
2023/12/03 12:04:14;;;;;;;;;;;;;;;;;;6271795;28;19917;-85
2023/12/03 12:07:15;;;;;;;;;;;;;;;;;;6265763;28;19988;-84
2023/12/03 12:10:16;;;;;;;;;;;;;;;;;;6264496;28;20194;-86
2023/12/03 12:13:16;;;;;;;;;;;;;;;;;;6278296;28;19960;-81
2023/12/03 12:16:16;;;;;;;;;;;;;;;;;;6266914;28;19920;-84
2023/12/03 12:19:16;;;;;;;;;;;;;;;;;;6272443;28;19925;-83
2023/12/03 12:22:16;;;;;;;;;;;;;;;;;;6275416;28;19913;-83
2023/12/03 12:25:16;;;;;;;;;;;;;;;;;;6272871;28;20011;-83
2023/12/03 12:28:17;;;;;;;;;;;;;;;;;;6278693;28;20262;-83
2023/12/03 12:31:19;;;;;;;;;;;;;;;;;;6249983;28;20472;-81
2023/12/03 12:34:20;;;;;;;;;;;;;;;;;;6265606;28;19917;-82
2023/12/03 12:37:20;;;;;;;;;;;;;;;;;;6267306;28;20149;-83
2023/12/03 12:40:20;;;;;;;;;;;;;;;;;;6276423;28;19916;-82
2023/12/03 12:43:21;;;;;;;;;;;;;;;;;;6257762;28;19914;-82
2023/12/03 12:46:22;;;;;;;;;;;;;;;;;;6257807;28;20445;-81
2023/12/03 12:49:22;;;;;;;;;;;;;;;;;;6267530;28;20354;-82
2023/12/03 12:52:23;;;;;;;;;;;;;;;;;;6266823;28;20331;-79
2023/12/03 12:55:23;;;;;;;;;;;;;;;;;;6271796;28;19920;-79
2023/12/03 12:58:23;;;;;;;;;;;;;;;;;;6259306;28;19940;-79
2023/12/03 13:01:24;;;;;;;;;;;;;;;;;;6255137;28;19932;-79
2023/12/03 13:04:24;;;;;;;;;;;;;;;;;;6247816;28;20445;-79
2023/12/03 13:07:24;;;;;;;;;;;;;;;;;;6259331;28;19967;-79
2023/12/03 13:10:24;;;;;;;;;;;;;;;;;;6261849;28;19956;-79
2023/12/03 13:13:24;;;;;;;;;;;;;;;;;;6264625;28;19921;-79
2023/12/03 13:16:24;;;;;;;;;;;;;;;;;;6250581;28;23258;-79
2023/12/03 13:19:24;;;;;;;;;;;;;;;;;;6263060;28;20016;-79
2023/12/03 13:22:25;;;;;;;;;;;;;;;;;;6263957;28;19974;-82
2023/12/03 13:25:25;;;;;;;;;;;;;;;;;;6260338;28;20353;-82
2023/12/03 13:28:26;;;;;;;;;;;;;;;;;;6261248;28;20011;-81
2023/12/03 13:31:29;;;;;;;;;;;;;;;;;;6246145;28;20091;-82
2023/12/03 13:34:30;;;;;;;;;;;;;;;;;;5921574;28;9999730;-81
2023/12/03 13:37:32;;;;;;;;;;;;;;;;;;6282342;28;19968;-81
2023/12/03 13:40:32;;;;;;;;;;;;;;;;;;6271274;28;20336;-81
2023/12/03 13:43:32;;;;;;;;;;;;;;;;;;6253953;28;20018;-81
2023/12/03 13:46:32;;;;;;;;;;;;;;;;;;6250056;28;19943;-81
2023/12/03 13:49:32;;;;;;;;;;;;;;;;;;6258016;28;19970;-81
2023/12/03 13:52:32;;;;;;;;;;;;;;;;;;6260038;28;19924;-81
2023/12/03 13:55:32;;;;;;;;;;;;;;;;;;6257620;28;19924;-81
2023/12/03 13:58:33;;;;;;;;;;;;;;;;;;6257210;28;19928;-82
2023/12/03 14:01:33;;;;;;;;;;;;;;;;;;6252268;28;19917;-82
2023/12/03 14:04:33;;;;;;;;;;;;;;;;;;6257192;28;19917;-81
2023/12/03 14:07:33;;;;;;;;;;;;;;;;;;6250389;28;19913;-81
2023/12/03 14:10:34;;;;;;;;;;;;;;;;;;6250030;28;19920;-80
2023/12/03 14:13:34;;;;;;;;;;;;;;;;;;6271116;28;19917;-81
2023/12/03 14:16:34;;;;;;;;;;;;;;;;;;6249746;28;19967;-80
2023/12/03 14:19:34;;;;;;;;;;;;;;;;;;6266327;28;19921;-81
2023/12/03 14:22:36;;;;;;;;;;;;;;;;;;6265670;28;19924;-80
2023/12/03 14:25:36;;;;;;;;;;;;;;;;;;6253130;28;19917;-80
2023/12/03 14:28:36;;;;;;;;;;;;;;;;;;6261181;28;19984;-81
2023/12/03 14:31:36;;;;;;;;;;;;;;;;;;6280001;28;19931;-81
2023/12/03 14:34:37;;;;;;;;;;;;;;;;;;6272798;28;19917;-81
2023/12/03 14:37:37;;;;;;;;;;;;;;;;;;6272796;28;19935;-81
2023/12/03 14:40:38;;;;;;;;;;;;;;;;;;6286118;28;20071;-81
2023/12/03 14:43:38;;;;;;;;;;;;;;;;;;6279395;28;19998;-81
2023/12/03 14:46:38;;;;;;;;;;;;;;;;;;6278078;28;20027;-81
2023/12/03 14:49:38;;;;;;;;;;;;;;;;;;6276273;28;19974;-82
2023/12/03 14:52:38;;;;;;;;;;;;;;;;;;6280500;28;19912;-81
2023/12/03 14:55:39;;;;;;;;;;;;;;;;;;6283791;28;19913;-82
2023/12/03 14:58:39;;;;;;;;;;;;;;;;;;6272118;28;19927;-81
2023/12/03 15:01:39;;;;;;;;;;;;;;;;;;5917743;28;9999883;-82
2023/12/03 15:04:39;;;;;;;;;;;;;;;;;;6289824;28;20003;-82
2023/12/03 15:07:40;;;;;;;;;;;;;;;;;;6282212;28;19920;-81
2023/12/03 15:10:41;;;;;;;;;;;;;;;;;;6284187;28;20122;-81
2023/12/03 15:13:41;;;;;;;;;;;;;;;;;;6279963;28;19935;-81
2023/12/03 15:16:41;;;;;;;;;;;;;;;;;;6271598;28;19917;-81
2023/12/03 15:19:41;;;;;;;;;;;;;;;;;;6268594;28;19917;-81
2023/12/03 15:22:43;;;;;;;;;;;;;;;;;;6275951;28;19920;-83
2023/12/03 15:25:43;;;;;;;;;;;;;;;;;;6275570;28;19920;-83
2023/12/03 15:28:44;;;;;;;;;;;;;;;;;;6284299;28;19913;-83
2023/12/03 15:31:44;;;;;;;;;;;;;;;;;;6271902;28;19928;-84
2023/12/03 15:34:44;;;;;;;;;;;;;;;;;;6271296;28;19913;-84
2023/12/03 15:37:44;;;;;;;;;;;;;;;;;;6279225;28;19924;-84
2023/12/03 15:40:44;;;;;;;;;;;;;;;;;;6275480;28;19913;-84
2023/12/03 15:43:44;;;;;;;;;;;;;;;;;;6279753;28;19912;-84
2023/12/03 15:46:45;;;;;;;;;;;;;;;;;;6274682;28;19919;-84
2023/12/03 15:49:45;;;;;;;;;;;;;;;;;;6302839;28;19999;-84
2023/12/03 15:52:45;;;;;;;;;;;;;;;;;;6281370;28;19916;-85
2023/12/03 15:55:46;;;;;;;;;;;;;;;;;;6277512;28;20420;-84
2023/12/03 15:58:46;;;;;;;;;;;;;;;;;;6262944;28;19925;-85
2023/12/03 16:01:46;;;;;;;;;;;;;;;;;;6280167;28;20297;-87
2023/12/03 16:04:47;;;;;;;;;;;;;;;;;;6277124;28;19916;-87
2023/12/03 16:07:47;;;;;;;;;;;;;;;;;;6290067;28;19913;-79
2023/12/03 16:10:48;;;;;;;;;;;;;;;;;;6281327;28;19913;-84
2023/12/03 16:13:48;;;;;;;;;;;;;;;;;;6277118;28;19913;-83
2023/12/03 16:16:48;;;;;;;;;;;;;;;;;;6281013;28;20304;-83
2023/12/03 16:19:48;;;;;;;;;;;;;;;;;;6281146;28;20050;-82
2023/12/03 16:22:49;;;;;;;;;;;;;;;;;;6288533;28;19913;-82
2023/12/03 16:25:50;;;;;;;;;;;;;;;;;;6283601;28;19956;-84
2023/12/03 16:28:50;;;;;;;;;;;;;;;;;;6278554;28;19913;-81
2023/12/03 16:31:50;;;;;;;;;;;;;;;;;;6263342;28;19927;-82
2023/12/03 16:34:51;;;;;;;;;;;;;;;;;;6262960;28;19917;-81
2023/12/03 16:37:52;;;;;;;;;;;;;;;;;;6260552;28;19925;-82
2023/12/03 16:40:52;;;;;;;;;;;;;;;;;;6252011;28;20033;-81
2023/12/03 16:43:52;;;;;;;;;;;;;;;;;;6246785;28;20289;-84
2023/12/03 16:46:52;;;;;;;;;;;;;;;;;;6240779;28;20346;-84
2023/12/03 16:49:52;;;;;;;;;;;;;;;;;;6245519;28;20389;-84
2023/12/03 16:52:53;;;;;;;;;;;;;;;;;;6263041;28;19913;-82
2023/12/03 16:55:53;;;;;;;;;;;;;;;;;;6262375;28;19925;-83
2023/12/03 16:58:53;;;;;;;;;;;;;;;;;;6261978;28;19931;-82
2023/12/03 17:01:54;;;;;;;;;;;;;;;;;;6232586;28;19913;-83
2023/12/03 17:04:54;;;;;;;;;;;;;;;;;;5894722;28;10000385;-83
2023/12/03 17:07:54;;;;;;;;;;;;;;;;;;6258564;28;19917;-83
2023/12/03 17:10:54;;;;;;;;;;;;;;;;;;6245348;28;19913;-86
2023/12/03 17:13:54;;;;;;;;;;;;;;;;;;6248981;28;19924;-87
2023/12/03 17:16:54;;;;;;;;;;;;;;;;;;6253846;28;19917;-87
2023/12/03 17:19:55;;;;;;;;;;;;;;;;;;6258915;28;19928;-91
2023/12/03 17:22:56;;;;;;;;;;;;;;;;;;6258137;28;19925;-91
2023/12/03 17:25:56;;;;;;;;;;;;;;;;;;6240647;28;19913;-83
2023/12/03 17:28:56;;;;;;;;;;;;;;;;;;6250527;28;19913;-85
2023/12/03 17:31:56;;;;;;;;;;;;;;;;;;6261570;28;19921;-84
2023/12/03 17:34:57;;;;;;;;;;;;;;;;;;6256583;28;19913;-82
2023/12/03 17:37:57;;;;;;;;;;;;;;;;;;6253558;28;19928;-84
2023/12/03 17:40:57;;;;;;;;;;;;;;;;;;6256058;28;19917;-84
2023/12/03 17:43:58;;;;;;;;;;;;;;;;;;6258919;28;20263;-84
2023/12/03 17:46:58;;;;;;;;;;;;;;;;;;6257302;28;20013;-84
2023/12/03 17:49:58;;;;;;;;;;;;;;;;;;6253669;28;19958;-83
2023/12/03 17:52:59;;;;;;;;;;;;;;;;;;6245117;28;19952;-84
2023/12/03 17:55:59;;;;;;;;;;;;;;;;;;6251703;28;19960;-85
2023/12/03 17:58:59;;;;;;;;;;;;;;;;;;6259778;28;19921;-84
2023/12/03 18:02:00;;;;;;;;;;;;;;;;;;6262225;28;19913;-83
2023/12/03 18:05:00;;;;;;;;;;;;;;;;;;6255817;28;20024;-82
2023/12/03 18:08:00;;;;;;;;;;;;;;;;;;6253165;28;19932;-83
2023/12/03 18:11:00;;;;;;;;;;;;;;;;;;6244360;28;20385;-83
2023/12/03 18:14:03;;;;;;;;;;;;;;;;;;6258010;28;19917;-83
2023/12/03 18:17:03;;;;;;;;;;;;;;;;;;6254356;28;20390;-83
2023/12/03 18:20:03;;;;;;;;;;;;;;;;;;6249393;28;19932;-84
2023/12/03 18:23:03;;;;;;;;;;;;;;;;;;6251267;28;20389;-84
2023/12/03 18:26:03;;;;;;;;;;;;;;;;;;6244380;28;20421;-83
2023/12/03 18:29:03;;;;;;;;;;;;;;;;;;6245941;28;19957;-84
2023/12/03 18:32:03;;;;;;;;;;;;;;;;;;6255133;28;20016;-83
2023/12/03 18:35:03;;;;;;;;;;;;;;;;;;6243582;28;19951;-84
2023/12/03 18:38:04;;;;;;;;;;;;;;;;;;6254854;28;19992;-84
2023/12/03 18:41:04;;;;;;;;;;;;;;;;;;6248742;28;19917;-84
2023/12/03 18:44:04;;;;;;;;;;;;;;;;;;6248241;28;20420;-84
2023/12/03 18:47:04;;;;;;;;;;;;;;;;;;6250122;28;20370;-84
2023/12/03 18:50:06;;;;;;;;;;;;;;;;;;6250713;28;19975;-83
2023/12/03 18:53:09;;;;;;;;;;;;;;;;;;6257187;28;20289;-83
2023/12/03 18:56:09;;;;;;;;;;;;;;;;;;6249212;28;19971;-84
2023/12/03 18:59:09;;;;;;;;;;;;;;;;;;6251274;28;20398;-84
2023/12/03 19:02:09;;;;;;;;;;;;;;;;;;6240294;28;19975;-83
2023/12/03 19:05:09;;;;;;;;;;;;;;;;;;6252470;28;19917;-84
2023/12/03 19:08:10;;;;;;;;;;;;;;;;;;6250370;28;20325;-83
2023/12/03 19:11:10;;;;;;;;;;;;;;;;;;6242586;28;20305;-84
2023/12/03 19:14:11;;;;;;;;;;;;;;;;;;6232295;28;20329;-82
2023/12/03 19:17:11;;;;;;;;;;;;;;;;;;6246853;28;19966;-82
2023/12/03 19:20:11;;;;;;;;;;;;;;;;;;6254702;28;19924;-82
2023/12/03 19:23:12;;;;;;;;;;;;;;;;;;6256377;28;19919;-82
2023/12/03 19:26:12;;;;;;;;;;;;;;;;;;6257934;28;19917;-82
2023/12/03 19:29:12;;;;;;;;;;;;;;;;;;6256426;28;19956;-82
2023/12/03 19:32:12;;;;;;;;;;;;;;;;;;6257286;28;20348;-82
2023/12/03 19:35:12;;;;;;;;;;;;;;;;;;6255703;28;20309;-82
2023/12/03 19:38:13;;;;;;;;;;;;;;;;;;6255200;28;20279;-82
2023/12/03 19:41:13;;;;;;;;;;;;;;;;;;6261516;28;20290;-82
2023/12/03 19:44:13;;;;;;;;;;;;;;;;;;6266287;28;19917;-82
2023/12/03 19:47:14;;;;;;;;;;;;;;;;;;6260228;28;20350;-83
2023/12/03 19:50:14;;;;;;;;;;;;;;;;;;6253611;28;19981;-83
2023/12/03 19:53:14;;;;;;;;;;;;;;;;;;6253484;28;19917;-83
2023/12/03 19:56:14;;;;;;;;;;;;;;;;;;6253937;28;19921;-83
2023/12/03 19:59:14;;;;;;;;;;;;;;;;;;6253843;28;19921;-82
2023/12/03 20:02:14;;;;;;;;;;;;;;;;;;6247666;28;19917;-82
2023/12/03 20:05:15;;;;;;;;;;;;;;;;;;6251398;28;19917;-83
2023/12/03 20:08:15;;;;;;;;;;;;;;;;;;6250711;28;19963;-83
2023/12/03 20:11:15;;;;;;;;;;;;;;;;;;6256418;28;19917;-83
2023/12/03 20:14:15;;;;;;;;;;;;;;;;;;6259463;28;19920;-83
2023/12/03 20:17:15;;;;;;;;;;;;;;;;;;6248278;28;19924;-83
2023/12/03 20:20:15;;;;;;;;;;;;;;;;;;6250723;28;19916;-83
2023/12/03 20:23:16;;;;;;;;;;;;;;;;;;6235462;28;19917;-84
2023/12/03 20:26:16;;;;;;;;;;;;;;;;;;6252733;28;19921;-84
2023/12/03 20:29:16;;;;;;;;;;;;;;;;;;6250644;28;19924;-83